createdAt,value
2022-12-31T00:01:42.987Z,0.53
2022-12-31T00:04:09.763Z,0.20
2022-12-31T00:06:36.979Z,1.70
2022-12-31T00:09:06.579Z,1.70
2022-12-31T00:11:34.697Z,1.73
2022-12-31T00:14:02.203Z,1.10
2022-12-31T00:16:36.789Z,1.70
2022-12-31T00:19:05.298Z,1.40
2022-12-31T00:21:33.974Z,2.13
2022-12-31T00:24:01.643Z,1.43
2022-12-31T00:26:31.185Z,4.33
2022-12-31T00:28:59.975Z,2.80
2022-12-31T00:31:32.262Z,1.10
2022-12-31T00:33:59.998Z,2.33
2022-12-31T00:36:36.220Z,3.67
2022-12-31T00:39:05.646Z,2.43
2022-12-31T00:41:32.626Z,4.60
2022-12-31T00:43:59.702Z,4.47
2022-12-31T00:46:27.054Z,2.77
2022-12-31T00:48:54.061Z,2.07
2022-12-31T00:51:23.369Z,2.10
2022-12-31T00:53:50.429Z,0.43
2022-12-31T00:56:23.227Z,5.83
2022-12-31T00:58:51.061Z,6.27
2022-12-31T01:01:27.036Z,1.97
2022-12-31T01:03:56.488Z,3.20
2022-12-31T01:09:08.895Z,1.33
2022-12-31T01:11:36.178Z,3.57
2022-12-31T01:14:23.162Z,1.10
2022-12-31T01:16:52.606Z,4.30
2022-12-31T01:19:24.788Z,3.90
2022-12-31T01:21:52.348Z,1.53
2022-12-31T01:24:19.677Z,1.60
2022-12-31T01:26:46.683Z,4.77
2022-12-31T01:29:14.545Z,3.20
2022-12-31T01:31:41.671Z,2.27
2022-12-31T01:34:09.132Z,7.57
2022-12-31T01:36:37.973Z,4.47
2022-12-31T01:39:06.635Z,2.63
2022-12-31T01:41:41.692Z,4.87
2022-12-31T01:44:11.157Z,4.27
2022-12-31T01:46:45.146Z,4.60
2022-12-31T01:49:36.039Z,1.83
2022-12-31T01:52:07.899Z,4.83
2022-12-31T01:54:40.567Z,4.87
2022-12-31T01:57:09.531Z,2.20
2022-12-31T01:59:37.195Z,1.60
2022-12-31T02:02:05.077Z,1.77
2022-12-31T02:04:32.079Z,2.17
2022-12-31T02:07:07.425Z,2.53
2022-12-31T02:09:36.787Z,3.50
2022-12-31T02:12:03.896Z,5.10
2022-12-31T02:14:37.507Z,1.17
2022-12-31T02:17:38.378Z,2.37
2022-12-31T02:20:51.515Z,1.30
2022-12-31T02:23:40.455Z,1.23
2022-12-31T02:26:19.169Z,2.80
2022-12-31T02:29:11.974Z,2.00
2022-12-31T02:31:58.853Z,1.67
2022-12-31T02:34:36.979Z,1.47
2022-12-31T02:37:08.818Z,3.23
2022-12-31T02:39:36.801Z,1.47
2022-12-31T02:42:03.895Z,0.93
2022-12-31T02:44:34.007Z,3.67
2022-12-31T02:47:09.500Z,3.47
2022-12-31T02:49:42.069Z,4.53
2022-12-31T02:52:31.971Z,1.37
2022-12-31T02:55:10.985Z,2.13
2022-12-31T02:58:00.682Z,2.37
2022-12-31T03:00:50.267Z,2.10
2022-12-31T03:03:19.406Z,5.60
2022-12-31T03:05:48.891Z,4.83
2022-12-31T03:08:23.941Z,2.23
2022-12-31T03:10:50.723Z,1.57
2022-12-31T03:13:17.676Z,5.53
2022-12-31T03:15:44.478Z,2.67
2022-12-31T03:18:15.599Z,5.07
2022-12-31T03:21:19.636Z,1.27
2022-12-31T03:23:50.246Z,4.43
2022-12-31T03:26:17.078Z,3.93
2022-12-31T03:28:47.978Z,2.00
2022-12-31T03:31:16.394Z,6.93
2022-12-31T03:33:43.303Z,1.90
2022-12-31T03:36:14.452Z,3.07
2022-12-31T03:38:41.752Z,2.63
2022-12-31T03:41:11.606Z,0.90
2022-12-31T03:43:38.509Z,3.70
2022-12-31T03:46:05.470Z,2.93
2022-12-31T03:48:32.281Z,3.50
2022-12-31T03:50:59.301Z,0.30
2022-12-31T03:53:26.170Z,4.27
2022-12-31T03:55:54.092Z,1.97
2022-12-31T03:58:21.950Z,0.83
2022-12-31T04:00:49.525Z,5.33
2022-12-31T04:03:16.439Z,3.10
2022-12-31T04:05:43.361Z,1.97
2022-12-31T04:08:10.208Z,5.97
2022-12-31T04:10:36.959Z,3.70
2022-12-31T04:13:04.788Z,2.73
2022-12-31T04:15:32.237Z,1.90
2022-12-31T04:17:59.151Z,1.20
2022-12-31T04:20:26.070Z,2.67
2022-12-31T04:22:52.838Z,3.63
2022-12-31T04:25:19.578Z,2.40
2022-12-31T04:27:47.901Z,3.87
2022-12-31T04:30:15.081Z,1.07
2022-12-31T04:33:00.947Z,3.70
2022-12-31T04:35:28.687Z,4.20
2022-12-31T04:37:55.459Z,3.10
2022-12-31T04:40:22.733Z,0.87
2022-12-31T04:42:49.473Z,2.17
2022-12-31T04:45:16.311Z,1.60
2022-12-31T04:47:43.127Z,1.60
2022-12-31T04:50:09.925Z,4.67
2022-12-31T04:52:42.296Z,4.00
2022-12-31T04:55:09.838Z,2.37
2022-12-31T04:57:36.556Z,2.70
2022-12-31T05:00:04.010Z,1.90
2022-12-31T05:02:30.965Z,2.10
2022-12-31T05:04:57.881Z,6.00
2022-12-31T05:07:24.634Z,1.63
2022-12-31T05:09:51.474Z,4.23
2022-12-31T05:12:18.287Z,0.73
2022-12-31T05:14:45.000Z,2.97
2022-12-31T05:17:11.700Z,5.00
2022-12-31T05:19:38.533Z,2.37
2022-12-31T05:22:23.782Z,2.63
2022-12-31T05:24:52.331Z,1.97
2022-12-31T05:27:19.128Z,1.27
2022-12-31T05:29:46.011Z,3.03
2022-12-31T05:32:12.803Z,3.83
2022-12-31T05:34:39.554Z,2.30
2022-12-31T05:37:06.268Z,4.97
2022-12-31T05:39:33.034Z,2.10
2022-12-31T05:41:59.910Z,3.30
2022-12-31T05:44:45.311Z,1.77
2022-12-31T05:47:12.136Z,3.10
2022-12-31T05:49:38.904Z,3.13
2022-12-31T05:52:05.877Z,4.33
2022-12-31T05:54:32.845Z,4.90
2022-12-31T05:56:59.775Z,2.73
2022-12-31T05:59:26.584Z,4.70
2022-12-31T06:01:53.359Z,0.37
2022-12-31T06:04:20.073Z,2.77
2022-12-31T06:06:46.941Z,1.03
2022-12-31T06:09:14.693Z,3.23
2022-12-31T06:12:00.194Z,3.13
2022-12-31T06:14:27.042Z,1.80
2022-12-31T06:16:53.879Z,4.10
2022-12-31T06:19:20.658Z,2.50
2022-12-31T06:21:47.452Z,2.73
2022-12-31T06:24:14.266Z,4.47
2022-12-31T06:26:41.144Z,5.87
2022-12-31T06:29:08.968Z,3.13
2022-12-31T06:31:54.092Z,3.33
2022-12-31T06:34:20.902Z,4.03
2022-12-31T06:36:47.781Z,1.90
2022-12-31T06:39:14.571Z,4.10
2022-12-31T06:41:41.376Z,1.67
2022-12-31T06:44:08.133Z,7.40
2022-12-31T06:46:34.866Z,3.37
2022-12-31T06:49:01.679Z,2.40
2022-12-31T06:51:28.444Z,2.83
2022-12-31T06:53:55.233Z,5.53
2022-12-31T06:56:31.331Z,6.93
2022-12-31T06:59:00.905Z,4.20
2022-12-31T07:01:49.374Z,2.47
2022-12-31T07:04:53.037Z,2.07
2022-12-31T07:07:34.156Z,4.20
2022-12-31T07:13:30.196Z,3.17
2022-12-31T07:16:11.294Z,2.87
2022-12-31T07:18:41.076Z,2.63
2022-12-31T07:21:21.586Z,3.70
2022-12-31T07:23:50.158Z,3.70
2022-12-31T07:26:44.264Z,2.57
2022-12-31T07:29:33.944Z,6.80
2022-12-31T07:32:28.465Z,3.43
2022-12-31T07:35:17.097Z,4.90
2022-12-31T07:38:02.540Z,1.33
2022-12-31T07:41:09.353Z,4.27
2022-12-31T07:44:01.194Z,1.93
2022-12-31T07:46:38.602Z,5.60
2022-12-31T07:49:11.600Z,2.07
2022-12-31T07:51:39.129Z,3.73
2022-12-31T07:54:13.376Z,5.50
2022-12-31T07:56:59.580Z,1.60
2022-12-31T07:59:41.624Z,3.27
2022-12-31T08:02:26.958Z,3.53
2022-12-31T08:05:05.774Z,4.00
2022-12-31T08:07:44.318Z,7.27
2022-12-31T08:10:29.213Z,1.67
2022-12-31T08:15:45.950Z,2.10
2022-12-31T08:18:12.948Z,2.00
2022-12-31T08:23:43.624Z,2.27
2022-12-31T08:26:23.837Z,4.53
2022-12-31T08:29:14.972Z,2.30
2022-12-31T08:31:57.237Z,14.10
2022-12-31T08:34:35.358Z,1.50
2022-12-31T08:37:13.611Z,3.93
2022-12-31T08:39:48.027Z,4.40
2022-12-31T08:42:27.525Z,2.97
2022-12-31T08:45:30.968Z,2.67
2022-12-31T08:48:03.274Z,2.83
2022-12-31T08:50:30.523Z,2.17
2022-12-31T08:52:57.595Z,5.50
2022-12-31T08:55:24.788Z,8.10
2022-12-31T08:57:54.321Z,9.20
2022-12-31T09:00:21.719Z,3.13
2022-12-31T09:03:18.327Z,12.70
2022-12-31T09:05:48.261Z,2.23
2022-12-31T09:08:46.079Z,2.37
2022-12-31T09:11:46.505Z,6.10
2022-12-31T09:17:28.838Z,3.30
2022-12-31T09:19:55.977Z,5.13
2022-12-31T09:22:23.268Z,5.80
2022-12-31T09:24:50.381Z,2.13
2022-12-31T09:27:28.720Z,5.17
2022-12-31T09:30:22.116Z,4.00
2022-12-31T09:33:14.248Z,4.17
2022-12-31T09:35:49.820Z,2.67
2022-12-31T09:38:22.347Z,2.83
2022-12-31T09:41:20.242Z,2.20
2022-12-31T09:44:02.046Z,3.27
2022-12-31T09:46:47.300Z,8.70
2022-12-31T09:49:39.062Z,6.97
2022-12-31T09:52:37.205Z,2.50
2022-12-31T09:55:31.453Z,5.63
2022-12-31T09:58:33.066Z,5.13
2022-12-31T10:01:34.022Z,3.17
2022-12-31T10:04:23.285Z,8.30
2022-12-31T10:07:18.772Z,2.13
2022-12-31T10:09:48.534Z,3.63
2022-12-31T10:12:35.457Z,3.17
2022-12-31T10:15:23.961Z,4.87
2022-12-31T10:18:00.272Z,2.10
2022-12-31T10:20:49.710Z,3.57
2022-12-31T10:23:50.399Z,5.70
2022-12-31T10:26:32.628Z,5.73
2022-12-31T10:29:14.568Z,4.93
2022-12-31T10:31:51.165Z,7.27
2022-12-31T10:34:47.821Z,6.37
2022-12-31T10:43:15.566Z,8.80
2022-12-31T10:46:08.469Z,12.67
2022-12-31T10:49:01.088Z,6.73
2022-12-31T10:51:46.325Z,8.50
2022-12-31T10:54:42.051Z,9.70
2022-12-31T10:57:20.773Z,4.30
2022-12-31T11:00:13.942Z,4.03
2022-12-31T11:02:40.749Z,13.47
2022-12-31T11:05:24.221Z,11.93
2022-12-31T11:08:06.517Z,25.50
2022-12-31T11:10:54.521Z,22.23
2022-12-31T11:13:52.067Z,19.57
2022-12-31T11:16:27.894Z,24.37
2022-12-31T11:19:05.857Z,16.43
2022-12-31T11:21:53.179Z,11.80
2022-12-31T11:24:58.684Z,16.13
2022-12-31T11:27:49.545Z,10.93
2022-12-31T11:30:33.564Z,5.00
2022-12-31T11:33:03.743Z,3.23
2022-12-31T11:35:36.286Z,4.40
2022-12-31T11:38:14.954Z,4.27
2022-12-31T11:41:02.672Z,7.03
2022-12-31T11:43:39.743Z,5.30
2022-12-31T11:46:24.943Z,3.57
2022-12-31T11:49:19.574Z,3.60
2022-12-31T11:52:10.076Z,3.83
2022-12-31T11:55:14.735Z,5.37
2022-12-31T11:57:48.787Z,2.63
2022-12-31T12:00:16.773Z,6.17
2022-12-31T12:02:49.198Z,7.33
2022-12-31T12:05:35.495Z,6.07
2022-12-31T12:08:02.785Z,6.93
2022-12-31T12:10:38.333Z,4.23
2022-12-31T12:13:26.104Z,2.83
2022-12-31T12:15:59.031Z,3.23
2022-12-31T12:18:36.109Z,3.00
2022-12-31T12:21:08.379Z,3.93
2022-12-31T12:23:35.234Z,5.97
2022-12-31T12:26:02.365Z,4.60
2022-12-31T12:28:44.387Z,5.47
2022-12-31T12:31:21.258Z,5.07
2022-12-31T12:34:22.581Z,3.90
2022-12-31T12:36:49.327Z,4.77
2022-12-31T12:39:22.493Z,4.93
2022-12-31T12:42:03.762Z,3.80
2022-12-31T12:44:31.628Z,2.90
2022-12-31T12:46:59.380Z,5.40
2022-12-31T12:49:29.516Z,3.23
2022-12-31T12:52:24.025Z,6.00
2022-12-31T12:55:05.224Z,4.23
2022-12-31T12:57:48.452Z,3.40
2022-12-31T13:00:35.681Z,5.37
2022-12-31T13:03:21.080Z,2.00
2022-12-31T13:06:06.347Z,2.83
2022-12-31T13:09:00.251Z,3.73
2022-12-31T13:11:45.540Z,1.97
2022-12-31T13:14:25.875Z,2.30
2022-12-31T13:16:52.774Z,2.80
2022-12-31T13:19:37.872Z,7.60
2022-12-31T13:22:25.617Z,8.23
2022-12-31T13:25:20.088Z,8.30
2022-12-31T13:27:50.333Z,9.33
2022-12-31T13:30:35.167Z,10.50
2022-12-31T13:33:17.183Z,9.70
2022-12-31T13:35:43.901Z,9.57
2022-12-31T13:38:19.828Z,6.13
2022-12-31T13:41:13.178Z,8.50
2022-12-31T13:43:51.153Z,7.93
2022-12-31T13:46:39.831Z,8.20
2022-12-31T13:49:21.696Z,10.97
2022-12-31T13:51:52.770Z,10.47
2022-12-31T13:54:44.745Z,5.93
2022-12-31T13:57:40.836Z,4.43
2022-12-31T14:00:20.427Z,4.40
2022-12-31T14:02:47.208Z,5.63
2022-12-31T14:05:25.320Z,7.20
2022-12-31T14:07:58.200Z,10.03
2022-12-31T14:10:32.880Z,5.60
2022-12-31T14:13:07.925Z,6.87
2022-12-31T14:15:54.488Z,9.20
2022-12-31T14:18:39.936Z,8.03
2022-12-31T14:21:09.303Z,5.53
2022-12-31T14:24:12.542Z,7.53
2022-12-31T14:26:49.680Z,8.27
2022-12-31T14:29:19.015Z,3.47
2022-12-31T14:31:48.853Z,5.80
2022-12-31T14:35:08.480Z,7.07
2022-12-31T14:37:59.396Z,5.83
2022-12-31T14:40:45.581Z,6.50
2022-12-31T14:43:27.451Z,2.60
2022-12-31T14:46:00.478Z,6.47
2022-12-31T14:48:59.170Z,9.97
2022-12-31T14:51:29.985Z,5.03
2022-12-31T14:53:58.397Z,9.93
2022-12-31T14:56:52.066Z,4.20
2022-12-31T14:59:26.260Z,8.30
2022-12-31T15:01:54.314Z,5.57
2022-12-31T15:07:38.240Z,7.73
2022-12-31T15:10:33.337Z,9.07
2022-12-31T15:13:06.382Z,7.77
2022-12-31T15:16:00.936Z,10.17
2022-12-31T15:18:53.730Z,7.30
2022-12-31T15:21:29.580Z,4.27
2022-12-31T15:23:56.944Z,12.70
2022-12-31T15:26:26.793Z,6.30
2022-12-31T15:29:01.316Z,14.87
2022-12-31T15:31:28.900Z,4.13
2022-12-31T15:33:58.943Z,5.80
2022-12-31T15:36:29.208Z,9.03
2022-12-31T15:39:11.493Z,20.03
2022-12-31T15:42:10.222Z,17.97
2022-12-31T15:44:48.619Z,11.07
2022-12-31T15:47:36.980Z,15.00
2022-12-31T15:50:07.902Z,9.10
2022-12-31T15:52:53.071Z,7.87
2022-12-31T15:55:29.059Z,16.10
2022-12-31T15:58:02.212Z,9.83
2022-12-31T16:00:44.796Z,10.23
2022-12-31T16:03:22.509Z,11.70
2022-12-31T16:05:49.471Z,8.10
2022-12-31T16:08:24.417Z,6.67
2022-12-31T16:10:51.351Z,10.60
2022-12-31T16:13:21.952Z,8.77
2022-12-31T16:15:51.881Z,11.83
2022-12-31T16:18:23.088Z,12.83
2022-12-31T16:23:42.020Z,14.00
2022-12-31T16:26:11.172Z,16.07
2022-12-31T16:28:37.943Z,42.67
2022-12-31T16:31:07.626Z,29.60
2022-12-31T16:33:34.548Z,29.30
2022-12-31T16:36:02.123Z,25.63
2022-12-31T16:38:37.156Z,21.40
2022-12-31T16:41:20.937Z,16.77
2022-12-31T16:43:50.012Z,16.20
2022-12-31T16:46:27.712Z,15.17
2022-12-31T16:48:58.420Z,13.40
2022-12-31T16:51:29.912Z,12.67
2022-12-31T16:53:57.413Z,30.47
2022-12-31T16:56:30.573Z,34.30
2022-12-31T16:59:23.998Z,28.73
2022-12-31T17:04:46.925Z,14.47
2022-12-31T17:07:37.222Z,45.50
2022-12-31T17:10:06.921Z,18.23
2022-12-31T17:13:17.581Z,15.70
2022-12-31T17:15:43.005Z,14.33
2022-12-31T17:18:20.631Z,19.27
2022-12-31T17:20:50.383Z,21.03
2022-12-31T17:23:28.339Z,9.67
2022-12-31T17:26:01.120Z,9.80
2022-12-31T17:28:32.555Z,17.90
2022-12-31T17:31:02.265Z,18.30
2022-12-31T17:36:24.192Z,11.73
2022-12-31T17:38:51.540Z,17.57
2022-12-31T17:41:25.204Z,13.70
2022-12-31T17:43:55.364Z,11.73
2022-12-31T17:46:24.043Z,16.43
2022-12-31T17:48:57.727Z,27.93
2022-12-31T17:51:24.859Z,17.27
2022-12-31T17:53:51.683Z,92.47
2022-12-31T17:56:20.048Z,43.23
2022-12-31T17:58:52.599Z,68.67
2022-12-31T18:01:23.531Z,32.57
2022-12-31T18:03:50.728Z,21.70
2022-12-31T18:06:19.619Z,11.13
2022-12-31T18:08:46.825Z,6.87
2022-12-31T18:11:24.364Z,8.93
2022-12-31T18:13:53.010Z,9.23
2022-12-31T18:16:19.868Z,6.77
2022-12-31T18:18:46.815Z,12.40
2022-12-31T18:21:19.731Z,8.67
2022-12-31T18:23:48.509Z,10.93
2022-12-31T18:26:23.815Z,6.77
2022-12-31T18:28:50.917Z,6.70
2022-12-31T18:31:28.841Z,10.20
2022-12-31T18:33:57.418Z,5.00
2022-12-31T18:36:25.453Z,8.03
2022-12-31T18:38:53.210Z,9.17
2022-12-31T18:41:21.345Z,7.13
2022-12-31T18:43:49.263Z,6.97
2022-12-31T18:46:18.464Z,7.67
2022-12-31T18:48:45.539Z,9.17
2022-12-31T18:51:18.772Z,12.07
2022-12-31T18:53:45.846Z,14.23
2022-12-31T18:56:17.606Z,8.50
2022-12-31T18:58:45.148Z,9.73
2022-12-31T19:01:26.414Z,10.17
2022-12-31T19:04:01.289Z,12.07
2022-12-31T19:06:29.564Z,9.93
2022-12-31T19:08:56.625Z,9.33
2022-12-31T19:11:23.849Z,15.83
2022-12-31T19:13:51.673Z,11.07
2022-12-31T19:16:18.560Z,13.10
2022-12-31T19:18:47.493Z,17.03
2022-12-31T19:21:20.274Z,16.63
2022-12-31T19:24:05.909Z,18.50
2022-12-31T19:26:33.978Z,30.17
2022-12-31T19:29:03.780Z,22.20
2022-12-31T19:31:30.571Z,17.20
2022-12-31T19:33:57.383Z,18.73
2022-12-31T19:36:24.133Z,8.53
2022-12-31T19:38:50.916Z,11.40
2022-12-31T19:41:20.476Z,13.13
2022-12-31T19:43:47.937Z,9.40
2022-12-31T19:46:16.441Z,9.83
2022-12-31T19:48:43.468Z,8.87
2022-12-31T19:51:15.045Z,12.03
2022-12-31T19:53:41.870Z,14.63
2022-12-31T19:56:12.889Z,60.30
2022-12-31T19:58:39.624Z,17.10
2022-12-31T20:01:06.485Z,16.87
2022-12-31T20:03:33.748Z,78.63
2022-12-31T20:06:06.756Z,47.67
2022-12-31T20:08:35.185Z,23.43
2022-12-31T20:11:12.486Z,17.60
2022-12-31T20:13:40.418Z,16.23
2022-12-31T20:16:13.245Z,14.60
2022-12-31T20:18:41.750Z,22.77
2022-12-31T20:21:14.387Z,14.50
2022-12-31T20:23:41.219Z,9.40
2022-12-31T20:26:07.991Z,5.77
2022-12-31T20:28:36.478Z,5.87
2022-12-31T20:31:12.605Z,7.80
2022-12-31T20:33:39.739Z,4.47
2022-12-31T20:36:09.607Z,50.47
2022-12-31T20:38:36.692Z,23.20
2022-12-31T20:41:22.859Z,40.63
2022-12-31T20:43:50.591Z,17.00
2022-12-31T20:46:21.941Z,8.20
2022-12-31T20:48:50.443Z,9.50
2022-12-31T20:51:19.392Z,11.67
2022-12-31T20:53:55.993Z,7.70
2022-12-31T20:56:25.191Z,8.23
2022-12-31T20:58:52.046Z,5.03
2022-12-31T21:01:19.954Z,9.00
2022-12-31T21:04:05.964Z,6.23
2022-12-31T21:06:35.206Z,5.30
2022-12-31T21:09:04.090Z,4.83
2022-12-31T21:11:49.488Z,4.93
2022-12-31T21:14:16.351Z,5.87
2022-12-31T21:17:01.861Z,5.60
2022-12-31T21:19:28.629Z,9.77
2022-12-31T21:21:55.396Z,8.37
2022-12-31T21:24:24.177Z,4.87
2022-12-31T21:26:52.133Z,8.50
2022-12-31T21:29:18.965Z,7.80
2022-12-31T21:31:45.700Z,5.33
2022-12-31T21:34:12.627Z,8.40
2022-12-31T21:36:39.466Z,7.10
2022-12-31T21:39:06.238Z,7.50
2022-12-31T21:41:51.168Z,13.83
2022-12-31T21:44:25.808Z,7.77
2022-12-31T21:47:34.876Z,4.33
2022-12-31T21:50:03.259Z,7.13
2022-12-31T21:52:30.709Z,4.50
2022-12-31T21:55:18.510Z,7.83
2022-12-31T21:58:24.367Z,7.13
2022-12-31T22:00:52.475Z,4.27
2022-12-31T22:03:25.207Z,4.27
2022-12-31T22:05:53.271Z,11.17
2022-12-31T22:08:21.791Z,13.00
2022-12-31T22:10:52.503Z,10.73
2022-12-31T22:13:20.064Z,29.00
2022-12-31T22:15:49.416Z,36.13
2022-12-31T22:18:17.026Z,18.47
2022-12-31T22:20:43.907Z,35.93
2022-12-31T22:23:30.429Z,15.20
2022-12-31T22:25:57.256Z,28.40
2022-12-31T22:28:40.190Z,31.33
2022-12-31T22:31:16.497Z,6.53
2022-12-31T22:33:43.962Z,10.97
2022-12-31T22:36:13.932Z,9.30
2022-12-31T22:38:40.913Z,6.33
2022-12-31T22:41:16.591Z,7.10
2022-12-31T22:43:47.001Z,9.37
2022-12-31T22:46:17.371Z,9.70
2022-12-31T22:48:44.340Z,7.40
2022-12-31T22:51:12.887Z,25.13
2022-12-31T22:53:41.253Z,27.57
2022-12-31T22:56:09.051Z,25.43
2022-12-31T22:58:36.451Z,30.57
2022-12-31T23:03:54.294Z,18.77
2022-12-31T23:06:23.826Z,11.80
2022-12-31T23:09:14.671Z,6.90
2022-12-31T23:14:46.117Z,4.20
2022-12-31T23:17:40.732Z,8.30
2022-12-31T23:20:31.110Z,5.70
2022-12-31T23:23:09.248Z,6.30
2022-12-31T23:25:39.072Z,5.30
2022-12-31T23:28:06.982Z,5.77
2022-12-31T23:30:33.788Z,3.53
2022-12-31T23:33:00.614Z,5.13
2022-12-31T23:35:27.394Z,5.40
2022-12-31T23:37:54.287Z,9.77
2022-12-31T23:40:22.050Z,46.97
2022-12-31T23:42:50.318Z,28.47
2022-12-31T23:45:17.208Z,30.73
2022-12-31T23:47:43.999Z,13.07
2022-12-31T23:50:10.758Z,13.83
2022-12-31T23:52:37.491Z,9.20
2022-12-31T23:55:04.549Z,7.77
2022-12-31T23:57:31.361Z,11.40
2022-12-31T23:59:58.173Z,12.97
